createdAt,value
2023-01-15T00:01:38.664Z,0.34
2023-01-15T00:04:07.493Z,0.51
2023-01-15T00:06:39.565Z,0.40
2023-01-15T00:09:07.359Z,0.35
2023-01-15T00:11:34.239Z,0.47
2023-01-15T00:14:01.299Z,-0.41
2023-01-15T00:16:28.248Z,0.34
2023-01-15T00:18:57.380Z,0.35
2023-01-15T00:21:26.794Z,0.40
2023-01-15T00:24:13.103Z,0.46
2023-01-15T00:26:58.744Z,0.66
2023-01-15T00:29:26.353Z,0.80
2023-01-15T00:32:02.570Z,0.79
2023-01-15T00:34:31.149Z,0.89
2023-01-15T00:36:59.049Z,0.42
2023-01-15T00:39:26.825Z,0.51
2023-01-15T00:41:54.710Z,0.48
2023-01-15T00:44:21.753Z,0.63
2023-01-15T00:46:48.993Z,0.79
2023-01-15T00:49:15.762Z,0.98
2023-01-15T00:51:42.341Z,0.50
2023-01-15T00:54:09.083Z,0.15
2023-01-15T00:56:36.344Z,0.38
2023-01-15T00:59:04.485Z,0.79
2023-01-15T01:01:32.174Z,0.11
2023-01-15T01:03:59.067Z,0.87
2023-01-15T01:06:25.884Z,0.87
2023-01-15T01:08:52.723Z,0.90
2023-01-15T01:11:23.989Z,0.58
2023-01-15T01:13:50.878Z,0.57
2023-01-15T01:16:22.034Z,-0.18
2023-01-15T01:18:48.773Z,0.77
2023-01-15T01:21:15.554Z,0.93
2023-01-15T01:23:42.151Z,0.77
2023-01-15T01:26:09.123Z,0.70
2023-01-15T01:28:36.063Z,0.57
2023-01-15T01:31:06.770Z,0.53
2023-01-15T01:33:34.828Z,0.51
2023-01-15T01:36:01.425Z,0.47
2023-01-15T01:38:28.033Z,0.34
2023-01-15T01:40:54.596Z,0.67
2023-01-15T01:43:26.789Z,0.84
2023-01-15T01:45:53.836Z,-0.46
2023-01-15T01:48:26.776Z,0.98
2023-01-15T01:50:56.509Z,0.87
2023-01-15T01:53:27.752Z,1.00
2023-01-15T01:55:56.320Z,1.13
2023-01-15T01:58:28.540Z,0.62
2023-01-15T02:00:55.862Z,1.13
2023-01-15T02:03:25.587Z,1.00
2023-01-15T02:05:56.876Z,1.17
2023-01-15T02:08:23.604Z,1.09
2023-01-15T02:10:54.517Z,1.39
2023-01-15T02:13:36.904Z,0.89
2023-01-15T02:16:28.194Z,0.97
2023-01-15T02:19:17.598Z,1.07
2023-01-15T02:22:11.230Z,1.08
2023-01-15T02:25:12.295Z,0.79
2023-01-15T02:27:45.295Z,0.68
2023-01-15T02:30:28.463Z,0.72
2023-01-15T02:33:14.074Z,0.81
2023-01-15T02:36:01.120Z,0.78
2023-01-15T02:38:36.868Z,0.52
2023-01-15T02:41:06.839Z,0.65
2023-01-15T02:43:39.562Z,0.49
2023-01-15T02:46:07.638Z,0.33
2023-01-15T02:48:38.517Z,0.48
2023-01-15T02:51:13.864Z,-0.38
2023-01-15T02:53:44.180Z,-0.46
2023-01-15T02:56:17.853Z,0.54
2023-01-15T02:58:50.379Z,0.73
2023-01-15T03:01:22.910Z,0.80
2023-01-15T03:03:58.549Z,0.22
2023-01-15T03:06:33.920Z,1.03
2023-01-15T03:09:01.723Z,1.01
2023-01-15T03:11:34.645Z,1.05
2023-01-15T03:14:07.222Z,1.23
2023-01-15T03:16:39.122Z,0.75
2023-01-15T03:19:21.938Z,1.16
2023-01-15T03:21:58.085Z,0.83
2023-01-15T03:24:30.776Z,1.05
2023-01-15T03:26:58.218Z,0.79
2023-01-15T03:29:30.344Z,0.83
2023-01-15T03:31:59.516Z,1.09
2023-01-15T03:34:37.533Z,1.16
2023-01-15T03:37:05.461Z,1.30
2023-01-15T03:39:33.115Z,1.36
2023-01-15T03:42:37.345Z,1.44
2023-01-15T03:45:10.288Z,1.05
2023-01-15T03:47:46.677Z,1.07
2023-01-15T03:50:40.934Z,1.12
2023-01-15T03:53:18.799Z,1.01
2023-01-15T03:55:59.652Z,1.36
2023-01-15T03:58:41.428Z,0.46
2023-01-15T04:01:14.983Z,1.39
2023-01-15T04:03:43.638Z,1.52
2023-01-15T04:06:11.186Z,1.70
2023-01-15T04:08:41.552Z,1.66
2023-01-15T04:11:08.717Z,1.90
2023-01-15T04:13:45.739Z,1.19
2023-01-15T04:16:28.678Z,2.04
2023-01-15T04:18:55.387Z,1.97
2023-01-15T04:21:23.774Z,1.88
2023-01-15T04:23:50.659Z,1.95
2023-01-15T04:26:17.803Z,2.08
2023-01-15T04:28:45.404Z,1.33
2023-01-15T04:31:12.114Z,2.19
2023-01-15T04:33:40.032Z,2.28
2023-01-15T04:36:08.832Z,2.31
2023-01-15T04:38:38.171Z,2.38
2023-01-15T04:41:23.886Z,2.41
2023-01-15T04:44:08.705Z,2.35
2023-01-15T04:46:38.331Z,2.14
2023-01-15T04:49:08.345Z,2.15
2023-01-15T04:51:35.383Z,2.20
2023-01-15T04:54:04.355Z,2.09
2023-01-15T04:56:31.704Z,2.27
2023-01-15T04:59:01.787Z,2.35
2023-01-15T05:01:28.852Z,1.61
2023-01-15T05:03:55.448Z,2.44
2023-01-15T05:06:22.030Z,2.02
2023-01-15T05:08:48.637Z,2.40
2023-01-15T05:11:15.265Z,2.50
2023-01-15T05:13:41.847Z,2.11
2023-01-15T05:16:09.508Z,2.45
2023-01-15T05:18:36.196Z,2.47
2023-01-15T05:21:03.428Z,2.48
2023-01-15T05:23:29.997Z,2.45
2023-01-15T05:25:56.715Z,2.43
2023-01-15T05:28:23.261Z,2.42
2023-01-15T05:30:49.864Z,2.05
2023-01-15T05:33:16.423Z,2.31
2023-01-15T05:35:43.029Z,2.34
2023-01-15T05:38:09.603Z,2.46
2023-01-15T05:40:36.568Z,2.48
2023-01-15T05:43:03.101Z,2.55
2023-01-15T05:45:29.696Z,2.55
2023-01-15T05:47:56.269Z,2.36
2023-01-15T05:50:22.883Z,2.19
2023-01-15T05:52:49.462Z,2.21
2023-01-15T05:55:16.187Z,2.28
2023-01-15T05:57:42.760Z,2.28
2023-01-15T06:00:10.005Z,2.14
2023-01-15T06:02:39.451Z,2.07
2023-01-15T06:05:06.547Z,2.13
2023-01-15T06:07:33.103Z,2.11
2023-01-15T06:09:59.748Z,2.14
2023-01-15T06:12:26.298Z,2.09
2023-01-15T06:14:52.897Z,2.02
2023-01-15T06:17:19.519Z,1.33
2023-01-15T06:19:46.564Z,1.93
2023-01-15T06:22:13.171Z,1.98
2023-01-15T06:24:39.741Z,1.89
2023-01-15T06:27:06.321Z,2.00
2023-01-15T06:29:33.095Z,2.13
2023-01-15T06:31:59.667Z,2.24
2023-01-15T06:34:26.265Z,2.28
2023-01-15T06:36:52.860Z,2.34
2023-01-15T06:39:19.519Z,2.07
2023-01-15T06:42:04.644Z,2.26
2023-01-15T06:44:49.746Z,2.30
2023-01-15T06:47:23.446Z,2.30
2023-01-15T06:49:53.549Z,2.13
2023-01-15T06:52:20.526Z,2.43
2023-01-15T06:54:47.106Z,2.32
2023-01-15T06:57:13.862Z,2.20
2023-01-15T06:59:40.399Z,0.53
2023-01-15T07:02:07.015Z,2.37
2023-01-15T07:04:33.708Z,2.40
2023-01-15T07:07:00.238Z,2.31
2023-01-15T07:09:26.939Z,2.22
2023-01-15T07:11:53.565Z,2.41
2023-01-15T07:14:22.644Z,1.72
2023-01-15T07:16:50.067Z,1.63
2023-01-15T07:19:17.408Z,2.40
2023-01-15T07:21:44.671Z,2.53
2023-01-15T07:24:12.250Z,2.55
2023-01-15T07:26:39.330Z,2.54
2023-01-15T07:29:06.242Z,2.37
2023-01-15T07:31:33.587Z,1.49
2023-01-15T07:34:00.284Z,2.48
2023-01-15T07:36:27.212Z,2.24
2023-01-15T07:38:54.177Z,2.48
2023-01-15T07:41:39.067Z,2.43
2023-01-15T07:44:24.555Z,2.49
2023-01-15T07:47:09.948Z,2.53
2023-01-15T07:49:45.603Z,2.05
2023-01-15T07:52:19.027Z,2.38
2023-01-15T07:54:47.063Z,2.54
2023-01-15T07:57:18.758Z,2.42
2023-01-15T07:59:45.394Z,2.36
2023-01-15T08:02:13.028Z,2.25
2023-01-15T08:04:40.241Z,2.37
2023-01-15T08:07:08.076Z,2.43
2023-01-15T08:09:35.099Z,2.17
2023-01-15T08:12:21.330Z,2.47
2023-01-15T08:15:06.651Z,2.50
2023-01-15T08:17:34.915Z,2.57
2023-01-15T08:20:03.202Z,1.57
2023-01-15T08:22:30.011Z,2.35
2023-01-15T08:24:56.574Z,2.37
2023-01-15T08:27:23.476Z,2.34
2023-01-15T08:29:50.156Z,2.32
2023-01-15T08:32:16.897Z,1.14
2023-01-15T08:34:43.611Z,2.35
2023-01-15T08:37:10.403Z,2.43
2023-01-15T08:39:37.060Z,2.53
2023-01-15T08:42:04.228Z,2.64
2023-01-15T08:44:31.247Z,0.34
2023-01-15T08:46:57.875Z,2.65
2023-01-15T08:49:24.606Z,2.39
2023-01-15T08:51:52.138Z,2.36
2023-01-15T08:54:20.374Z,2.59
2023-01-15T08:56:47.500Z,2.15
2023-01-15T08:59:14.226Z,2.52
2023-01-15T09:01:41.232Z,2.43
2023-01-15T09:04:07.958Z,2.41
2023-01-15T09:06:34.632Z,2.18
2023-01-15T09:09:01.483Z,2.27
2023-01-15T09:11:28.780Z,2.15
2023-01-15T09:13:55.508Z,2.29
2023-01-15T09:16:22.559Z,2.54
2023-01-15T09:18:49.165Z,2.56
2023-01-15T09:21:15.895Z,2.59
2023-01-15T09:23:42.470Z,2.43
2023-01-15T09:26:26.845Z,1.53
2023-01-15T09:28:53.741Z,1.69
2023-01-15T09:31:20.936Z,2.50
2023-01-15T09:33:47.539Z,2.69
2023-01-15T09:36:19.180Z,2.71
2023-01-15T09:38:45.997Z,2.66
2023-01-15T09:41:34.463Z,2.01
2023-01-15T09:44:31.837Z,2.73
2023-01-15T09:47:08.035Z,2.66
2023-01-15T09:49:55.885Z,2.64
2023-01-15T09:52:28.783Z,2.48
2023-01-15T09:55:17.292Z,2.65
2023-01-15T09:57:46.472Z,2.72
2023-01-15T10:00:19.459Z,2.61
2023-01-15T10:02:55.173Z,2.30
2023-01-15T10:05:33.491Z,2.28
2023-01-15T10:08:13.935Z,2.55
2023-01-15T10:10:57.511Z,2.47
2023-01-15T10:13:54.839Z,2.77
2023-01-15T10:16:25.019Z,1.80
2023-01-15T10:18:52.853Z,2.91
2023-01-15T10:21:52.247Z,2.88
2023-01-15T10:24:29.613Z,2.75
2023-01-15T10:26:58.423Z,2.52
2023-01-15T10:29:40.732Z,2.68
2023-01-15T10:33:01.062Z,2.72
2023-01-15T10:35:39.346Z,2.72
2023-01-15T10:38:38.121Z,2.52
2023-01-15T10:41:30.522Z,2.46
2023-01-15T10:44:14.993Z,2.75
2023-01-15T10:46:48.893Z,2.89
2023-01-15T10:49:17.759Z,2.85
2023-01-15T10:51:46.743Z,2.72
2023-01-15T10:54:36.135Z,2.63
2023-01-15T10:57:13.434Z,2.73
2023-01-15T10:59:48.746Z,2.80
2023-01-15T11:02:40.642Z,2.78
2023-01-15T11:05:14.651Z,2.79
2023-01-15T11:08:06.586Z,1.53
2023-01-15T11:10:32.354Z,2.84
2023-01-15T11:13:29.693Z,2.31
2023-01-15T11:16:15.125Z,2.06
2023-01-15T11:19:04.373Z,2.39
2023-01-15T11:21:31.893Z,2.52
2023-01-15T11:24:00.173Z,1.90
2023-01-15T11:26:30.446Z,2.63
2023-01-15T11:28:58.740Z,1.80
2023-01-15T11:31:36.640Z,2.88
2023-01-15T11:34:06.057Z,2.90
2023-01-15T11:36:33.363Z,2.89
2023-01-15T11:38:59.991Z,2.91
2023-01-15T11:41:46.490Z,2.92
2023-01-15T11:44:33.035Z,2.09
2023-01-15T11:47:19.525Z,2.89
2023-01-15T11:50:12.582Z,2.80
2023-01-15T11:52:45.199Z,2.81
2023-01-15T11:55:18.738Z,2.83
2023-01-15T11:57:46.088Z,2.76
2023-01-15T12:00:24.757Z,2.83
2023-01-15T12:02:56.155Z,2.89
2023-01-15T12:05:26.104Z,2.86
2023-01-15T12:07:55.988Z,2.83
2023-01-15T12:10:52.259Z,2.75
2023-01-15T12:13:38.371Z,2.61
2023-01-15T12:16:27.107Z,2.53
2023-01-15T12:19:05.242Z,2.63
2023-01-15T12:21:37.911Z,2.69
2023-01-15T12:24:32.020Z,2.49
2023-01-15T12:27:23.519Z,2.20
2023-01-15T12:29:55.466Z,2.47
2023-01-15T12:32:31.342Z,2.50
2023-01-15T12:35:03.755Z,2.48
2023-01-15T12:37:37.876Z,1.39
2023-01-15T12:40:21.716Z,2.52
2023-01-15T12:43:11.480Z,2.62
2023-01-15T12:45:46.833Z,2.75
2023-01-15T12:48:38.265Z,2.84
2023-01-15T12:51:06.493Z,1.75
2023-01-15T12:53:38.894Z,2.84
2023-01-15T12:56:32.816Z,2.86
2023-01-15T12:59:14.393Z,2.86
2023-01-15T13:02:09.628Z,2.80
2023-01-15T13:05:08.368Z,2.72
2023-01-15T13:07:45.617Z,2.78
2023-01-15T13:10:22.616Z,2.88
2023-01-15T13:12:49.387Z,2.70
2023-01-15T13:15:18.999Z,1.54
2023-01-15T13:18:23.751Z,2.50
2023-01-15T13:20:53.976Z,2.70
2023-01-15T13:23:41.767Z,2.69
2023-01-15T13:26:26.751Z,2.31
2023-01-15T13:29:56.121Z,2.42
2023-01-15T13:32:30.962Z,2.70
2023-01-15T13:34:57.506Z,2.81
2023-01-15T13:37:36.364Z,2.91
2023-01-15T13:40:23.452Z,2.75
2023-01-15T13:42:51.104Z,2.96
2023-01-15T13:45:37.181Z,2.91
2023-01-15T13:48:14.503Z,2.91
2023-01-15T13:50:51.115Z,3.00
2023-01-15T13:53:27.282Z,2.31
2023-01-15T13:56:09.588Z,2.72
2023-01-15T13:58:42.640Z,2.63
2023-01-15T14:01:18.085Z,2.94
2023-01-15T14:04:05.116Z,2.90
2023-01-15T14:06:54.050Z,2.92
2023-01-15T14:09:20.549Z,2.85
2023-01-15T14:12:21.487Z,2.86
2023-01-15T14:15:06.189Z,2.93
2023-01-15T14:17:57.683Z,2.95
2023-01-15T14:20:37.997Z,2.78
2023-01-15T14:23:19.744Z,2.86
2023-01-15T14:26:06.300Z,0.07
2023-01-15T14:28:45.094Z,2.86
2023-01-15T14:31:20.961Z,2.49
2023-01-15T14:34:15.060Z,2.24
2023-01-15T14:37:23.242Z,2.34
2023-01-15T14:39:54.553Z,2.61
2023-01-15T14:42:39.655Z,2.78
2023-01-15T14:45:21.127Z,2.87
2023-01-15T14:47:50.652Z,2.93
2023-01-15T14:50:43.902Z,1.49
2023-01-15T14:53:16.262Z,2.66
2023-01-15T14:56:04.534Z,2.68
2023-01-15T14:58:55.439Z,2.03
2023-01-15T15:01:29.650Z,2.45
2023-01-15T15:04:14.895Z,2.62
2023-01-15T15:06:49.840Z,2.56
2023-01-15T15:09:43.806Z,2.31
2023-01-15T15:12:19.848Z,1.48
2023-01-15T15:15:12.003Z,-0.01
2023-01-15T15:17:44.921Z,1.25
2023-01-15T15:20:24.364Z,1.74
2023-01-15T15:22:57.883Z,2.04
2023-01-15T15:25:30.626Z,1.24
2023-01-15T15:28:10.516Z,2.26
2023-01-15T15:30:43.507Z,2.09
2023-01-15T15:33:17.544Z,2.49
2023-01-15T15:35:48.445Z,1.84
2023-01-15T15:38:18.487Z,2.39
2023-01-15T15:41:12.717Z,2.12
2023-01-15T15:44:04.408Z,1.60
2023-01-15T15:46:51.915Z,1.93
2023-01-15T15:49:21.398Z,0.68
2023-01-15T15:51:53.010Z,2.34
2023-01-15T15:54:27.143Z,2.33
2023-01-15T15:57:02.631Z,1.53
2023-01-15T15:59:32.717Z,1.65
2023-01-15T16:02:22.621Z,1.09
2023-01-15T16:05:02.279Z,1.27
2023-01-15T16:07:33.662Z,1.04
2023-01-15T16:10:16.666Z,-0.23
2023-01-15T16:12:50.087Z,-0.41
2023-01-15T16:15:20.487Z,1.40
2023-01-15T16:17:49.630Z,1.41
2023-01-15T16:20:19.437Z,1.43
2023-01-15T16:22:56.772Z,1.85
2023-01-15T16:25:30.896Z,1.87
2023-01-15T16:27:57.764Z,0.42
2023-01-15T16:30:24.854Z,1.51
2023-01-15T16:32:53.380Z,1.68
2023-01-15T16:35:22.872Z,1.76
2023-01-15T16:37:56.410Z,1.29
2023-01-15T16:40:37.040Z,1.89
2023-01-15T16:43:11.528Z,2.15
2023-01-15T16:45:55.558Z,2.29
2023-01-15T16:48:27.503Z,2.05
2023-01-15T16:50:54.128Z,1.81
2023-01-15T16:53:50.264Z,2.12
2023-01-15T16:56:35.136Z,2.32
2023-01-15T16:59:02.003Z,1.60
2023-01-15T17:01:43.528Z,2.14
2023-01-15T17:04:28.245Z,2.10
2023-01-15T17:07:04.466Z,2.05
2023-01-15T17:09:35.024Z,2.29
2023-01-15T17:12:19.856Z,1.60
2023-01-15T17:14:46.605Z,2.36
2023-01-15T17:17:21.992Z,2.35
2023-01-15T17:19:49.199Z,1.78
2023-01-15T17:22:36.639Z,2.37
2023-01-15T17:25:20.419Z,2.50
2023-01-15T17:27:47.059Z,2.38
2023-01-15T17:30:14.235Z,2.07
2023-01-15T17:32:41.678Z,2.26
2023-01-15T17:35:29.365Z,1.97
2023-01-15T17:37:56.122Z,1.47
2023-01-15T17:40:23.223Z,2.06
2023-01-15T17:42:50.158Z,1.68
2023-01-15T17:45:21.147Z,1.64
2023-01-15T17:47:47.826Z,2.01
2023-01-15T17:50:15.056Z,1.20
2023-01-15T17:52:42.732Z,2.15
2023-01-15T17:55:33.269Z,2.43
2023-01-15T17:58:18.642Z,2.25
2023-01-15T18:01:05.009Z,2.43
2023-01-15T18:03:50.844Z,2.25
2023-01-15T18:06:19.639Z,2.15
2023-01-15T18:08:52.513Z,2.51
2023-01-15T18:11:19.150Z,-0.06
2023-01-15T18:13:45.697Z,1.86
2023-01-15T18:16:12.355Z,1.96
2023-01-15T18:18:38.911Z,1.62
2023-01-15T18:21:05.715Z,1.27
2023-01-15T18:23:39.388Z,1.63
2023-01-15T18:26:07.679Z,0.86
2023-01-15T18:28:39.021Z,2.10
2023-01-15T18:31:07.369Z,2.24
2023-01-15T18:33:34.351Z,2.09
2023-01-15T18:36:09.828Z,1.80
2023-01-15T18:38:43.682Z,1.84
2023-01-15T18:41:11.959Z,0.80
2023-01-15T18:43:57.383Z,0.78
2023-01-15T18:46:42.784Z,1.97
2023-01-15T18:49:09.540Z,2.28
2023-01-15T18:51:36.146Z,2.29
2023-01-15T18:54:06.257Z,2.16
2023-01-15T18:56:48.044Z,1.71
2023-01-15T18:59:15.747Z,1.09
2023-01-15T19:01:47.834Z,1.90
2023-01-15T19:04:14.775Z,0.73
2023-01-15T19:06:41.716Z,1.40
2023-01-15T19:09:10.209Z,1.64
2023-01-15T19:11:36.740Z,1.71
2023-01-15T19:14:22.060Z,1.68
2023-01-15T19:17:21.029Z,1.47
2023-01-15T19:19:48.641Z,1.85
2023-01-15T19:22:33.830Z,1.79
2023-01-15T19:25:00.477Z,2.00
2023-01-15T19:27:27.113Z,1.68
2023-01-15T19:29:53.766Z,1.57
2023-01-15T19:32:21.389Z,2.00
2023-01-15T19:34:55.384Z,1.93
2023-01-15T19:37:24.235Z,1.74
2023-01-15T19:39:50.908Z,1.72
2023-01-15T19:42:35.903Z,1.64
2023-01-15T19:45:20.929Z,1.43
2023-01-15T19:48:07.780Z,1.79
2023-01-15T19:50:38.403Z,1.83
2023-01-15T19:53:06.143Z,1.86
2023-01-15T19:55:33.616Z,1.61
2023-01-15T19:58:12.499Z,1.70
2023-01-15T20:00:40.961Z,1.80
2023-01-15T20:03:10.925Z,1.87
2023-01-15T20:05:39.398Z,1.62
2023-01-15T20:08:06.068Z,0.84
2023-01-15T20:10:34.304Z,1.43
2023-01-15T20:13:19.227Z,0.98
2023-01-15T20:15:45.846Z,0.91
2023-01-15T20:18:13.809Z,1.35
2023-01-15T20:20:41.006Z,1.46
2023-01-15T20:23:07.645Z,1.58
2023-01-15T20:25:35.167Z,1.23
2023-01-15T20:28:01.779Z,1.64
2023-01-15T20:30:28.996Z,1.65
2023-01-15T20:32:58.423Z,1.64
2023-01-15T20:35:29.171Z,1.65
2023-01-15T20:37:55.781Z,0.86
2023-01-15T20:40:24.311Z,1.59
2023-01-15T20:43:10.823Z,1.29
2023-01-15T20:45:37.858Z,1.76
2023-01-15T20:48:16.676Z,1.75
2023-01-15T20:51:18.246Z,1.41
2023-01-15T20:53:56.814Z,1.69
2023-01-15T20:56:23.582Z,1.63
2023-01-15T20:58:53.236Z,1.61
2023-01-15T21:01:19.959Z,1.68
2023-01-15T21:03:54.579Z,1.29
2023-01-15T21:06:26.602Z,1.19
2023-01-15T21:09:01.681Z,1.32
2023-01-15T21:11:47.190Z,0.97
2023-01-15T21:14:29.690Z,1.54
2023-01-15T21:17:02.489Z,1.27
2023-01-15T21:19:34.338Z,1.30
2023-01-15T21:22:00.932Z,1.03
2023-01-15T21:24:27.520Z,1.29
2023-01-15T21:26:54.173Z,1.21
2023-01-15T21:29:24.299Z,1.37
2023-01-15T21:31:51.420Z,0.41
2023-01-15T21:34:18.089Z,1.22
2023-01-15T21:36:44.860Z,0.98
2023-01-15T21:39:13.152Z,1.30
2023-01-15T21:41:58.749Z,1.26
2023-01-15T21:44:32.114Z,1.14
2023-01-15T21:47:00.107Z,1.12
2023-01-15T21:49:27.277Z,0.93
2023-01-15T21:51:54.110Z,1.20
2023-01-15T21:54:20.963Z,0.72
2023-01-15T21:56:47.596Z,1.20
2023-01-15T21:59:14.979Z,1.11
2023-01-15T22:01:41.845Z,1.07
2023-01-15T22:04:08.525Z,0.69
2023-01-15T22:06:37.774Z,0.95
2023-01-15T22:09:04.759Z,0.11
2023-01-15T22:11:43.743Z,0.54
2023-01-15T22:14:15.983Z,1.09
2023-01-15T22:16:43.310Z,1.21
2023-01-15T22:19:11.889Z,-1.50
2023-01-15T22:21:38.443Z,1.32
2023-01-15T22:24:05.417Z,0.93
2023-01-15T22:26:32.124Z,1.04
2023-01-15T22:28:59.208Z,0.79
2023-01-15T22:31:27.418Z,0.25
2023-01-15T22:33:54.613Z,1.10
2023-01-15T22:36:23.965Z,0.91
2023-01-15T22:38:54.827Z,1.02
2023-01-15T22:41:40.627Z,0.06
2023-01-15T22:44:08.366Z,1.00
2023-01-15T22:46:35.845Z,0.98
2023-01-15T22:49:03.812Z,0.95
2023-01-15T22:51:30.647Z,1.05
2023-01-15T22:53:57.504Z,1.08
2023-01-15T22:56:25.202Z,1.04
2023-01-15T22:58:55.458Z,0.44
2023-01-15T23:01:23.634Z,-0.50
2023-01-15T23:03:50.453Z,-1.11
2023-01-15T23:06:20.505Z,0.21
2023-01-15T23:08:47.269Z,-0.98
2023-01-15T23:11:15.992Z,0.35
2023-01-15T23:13:43.042Z,0.50
2023-01-15T23:16:10.267Z,0.63
2023-01-15T23:18:37.005Z,0.52
2023-01-15T23:21:24.112Z,0.70
2023-01-15T23:23:55.631Z,0.63
2023-01-15T23:26:23.625Z,-0.04
2023-01-15T23:28:50.922Z,0.81
2023-01-15T23:31:18.985Z,0.91
2023-01-15T23:33:45.817Z,0.84
2023-01-15T23:36:13.336Z,0.74
2023-01-15T23:38:41.521Z,-0.70
2023-01-15T23:41:10.299Z,-0.62
2023-01-15T23:43:56.750Z,0.40
2023-01-15T23:46:33.380Z,0.09
2023-01-15T23:49:08.155Z,0.25
2023-01-15T23:51:36.123Z,0.10
2023-01-15T23:54:03.760Z,0.35
2023-01-15T23:56:31.693Z,0.40
2023-01-15T23:58:59.604Z,0.30
